sensor_id;sensor_type;location;lat;lon;timestamp;P1;durP1;ratioP1;P2;durP2;ratioP2
69854;SDS011;57146;48.140;16.304;2022-10-31T00:01:12;11.32;;;5.00;;
69854;SDS011;57146;48.140;16.304;2022-10-31T00:03:43;10.52;;;4.63;;
69854;SDS011;57146;48.140;16.304;2022-10-31T00:06:10;10.57;;;5.10;;
69854;SDS011;57146;48.140;16.304;2022-10-31T00:08:37;9.70;;;4.43;;
69854;SDS011;57146;48.140;16.304;2022-10-31T00:11:07;12.13;;;5.57;;
69854;SDS011;57146;48.140;16.304;2022-10-31T00:13:35;11.13;;;4.88;;
69854;SDS011;57146;48.140;16.304;2022-10-31T00:16:02;11.32;;;5.38;;
69854;SDS011;57146;48.140;16.304;2022-10-31T00:18:29;11.45;;;4.65;;
69854;SDS011;57146;48.140;16.304;2022-10-31T00:21:00;11.47;;;5.13;;
69854;SDS011;57146;48.140;16.304;2022-10-31T00:23:29;9.90;;;4.57;;
69854;SDS011;57146;48.140;16.304;2022-10-31T00:26:00;9.40;;;4.30;;
69854;SDS011;57146;48.140;16.304;2022-10-31T00:28:28;9.85;;;4.10;;
69854;SDS011;57146;48.140;16.304;2022-10-31T00:30:59;7.70;;;3.67;;
69854;SDS011;57146;48.140;16.304;2022-10-31T00:33:27;6.97;;;2.97;;
69854;SDS011;57146;48.140;16.304;2022-10-31T00:35:54;6.90;;;3.03;;
69854;SDS011;57146;48.140;16.304;2022-10-31T00:38:21;6.50;;;2.95;;
69854;SDS011;57146;48.140;16.304;2022-10-31T00:40:49;7.22;;;2.95;;
69854;SDS011;57146;48.140;16.304;2022-10-31T00:43:17;7.35;;;2.88;;
69854;SDS011;57146;48.140;16.304;2022-10-31T00:45:44;5.73;;;2.60;;
69854;SDS011;57146;48.140;16.304;2022-10-31T00:48:11;6.63;;;2.85;;
69854;SDS011;57146;48.140;16.304;2022-10-31T00:50:38;6.45;;;2.97;;
69854;SDS011;57146;48.140;16.304;2022-10-31T00:53:06;6.10;;;2.70;;
69854;SDS011;57146;48.140;16.304;2022-10-31T00:55:33;7.32;;;2.88;;
69854;SDS011;57146;48.140;16.304;2022-10-31T00:58:00;6.63;;;2.63;;
69854;SDS011;57146;48.140;16.304;2022-10-31T01:00:27;6.78;;;2.53;;
69854;SDS011;57146;48.140;16.304;2022-10-31T01:02:55;5.78;;;2.25;;
69854;SDS011;57146;48.140;16.304;2022-10-31T01:05:22;6.03;;;2.47;;
69854;SDS011;57146;48.140;16.304;2022-10-31T01:07:49;6.03;;;2.47;;
69854;SDS011;57146;48.140;16.304;2022-10-31T01:10:16;6.57;;;2.50;;
69854;SDS011;57146;48.140;16.304;2022-10-31T01:12:44;5.43;;;1.90;;
69854;SDS011;57146;48.140;16.304;2022-10-31T01:15:13;5.40;;;2.35;;
69854;SDS011;57146;48.140;16.304;2022-10-31T01:17:43;6.53;;;2.33;;
69854;SDS011;57146;48.140;16.304;2022-10-31T01:20:10;6.70;;;2.40;;
69854;SDS011;57146;48.140;16.304;2022-10-31T01:22:39;5.90;;;2.20;;
69854;SDS011;57146;48.140;16.304;2022-10-31T01:25:07;6.60;;;2.50;;
69854;SDS011;57146;48.140;16.304;2022-10-31T01:27:34;6.97;;;2.53;;
69854;SDS011;57146;48.140;16.304;2022-10-31T01:30:02;5.72;;;2.17;;
69854;SDS011;57146;48.140;16.304;2022-10-31T01:32:29;5.47;;;2.22;;
69854;SDS011;57146;48.140;16.304;2022-10-31T01:34:57;6.83;;;2.50;;
69854;SDS011;57146;48.140;16.304;2022-10-31T01:37:24;6.65;;;2.45;;
69854;SDS011;57146;48.140;16.304;2022-10-31T01:39:51;5.20;;;2.08;;
69854;SDS011;57146;48.140;16.304;2022-10-31T01:42:19;6.80;;;2.50;;
69854;SDS011;57146;48.140;16.304;2022-10-31T01:44:58;6.03;;;2.10;;
69854;SDS011;57146;48.140;16.304;2022-10-31T01:48:00;5.17;;;2.30;;
69854;SDS011;57146;48.140;16.304;2022-10-31T01:50:26;6.57;;;2.38;;
69854;SDS011;57146;48.140;16.304;2022-10-31T01:53:05;6.65;;;2.03;;
69854;SDS011;57146;48.140;16.304;2022-10-31T01:55:38;5.07;;;1.80;;
69854;SDS011;57146;48.140;16.304;2022-10-31T01:58:19;5.80;;;2.10;;
69854;SDS011;57146;48.140;16.304;2022-10-31T02:00:50;4.87;;;2.00;;
69854;SDS011;57146;48.140;16.304;2022-10-31T02:03:22;5.63;;;2.00;;
69854;SDS011;57146;48.140;16.304;2022-10-31T02:05:50;5.03;;;2.17;;
69854;SDS011;57146;48.140;16.304;2022-10-31T02:08:30;4.57;;;1.80;;
69854;SDS011;57146;48.140;16.304;2022-10-31T02:11:00;6.05;;;2.20;;
69854;SDS011;57146;48.140;16.304;2022-10-31T02:13:28;6.03;;;2.20;;
69854;SDS011;57146;48.140;16.304;2022-10-31T02:15:58;5.07;;;1.95;;
69854;SDS011;57146;48.140;16.304;2022-10-31T02:18:26;4.97;;;1.83;;
69854;SDS011;57146;48.140;16.304;2022-10-31T02:20:59;5.20;;;2.08;;
69854;SDS011;57146;48.140;16.304;2022-10-31T02:31:54;5.05;;;1.60;;
69854;SDS011;57146;48.140;16.304;2022-10-31T02:34:43;6.20;;;1.90;;
69854;SDS011;57146;48.140;16.304;2022-10-31T02:37:16;4.47;;;1.70;;
69854;SDS011;57146;48.140;16.304;2022-10-31T02:43:20;4.43;;;1.55;;
69854;SDS011;57146;48.140;16.304;2022-10-31T02:48:45;3.60;;;1.20;;
69854;SDS011;57146;48.140;16.304;2022-10-31T02:51:14;3.65;;;1.00;;
69854;SDS011;57146;48.140;16.304;2022-10-31T02:53:42;3.50;;;1.10;;
69854;SDS011;57146;48.140;16.304;2022-10-31T02:56:14;3.65;;;1.13;;
69854;SDS011;57146;48.140;16.304;2022-10-31T02:58:47;3.40;;;0.80;;
69854;SDS011;57146;48.140;16.304;2022-10-31T03:06:58;4.10;;;1.10;;
69854;SDS011;57146;48.140;16.304;2022-10-31T03:10:03;4.38;;;1.02;;
69854;SDS011;57146;48.140;16.304;2022-10-31T03:12:54;3.58;;;1.00;;
69854;SDS011;57146;48.140;16.304;2022-10-31T03:15:50;3.03;;;0.85;;
69854;SDS011;57146;48.140;16.304;2022-10-31T03:18:28;4.10;;;1.20;;
69854;SDS011;57146;48.140;16.304;2022-10-31T03:21:07;3.63;;;1.10;;
69854;SDS011;57146;48.140;16.304;2022-10-31T03:23:39;4.72;;;1.40;;
69854;SDS011;57146;48.140;16.304;2022-10-31T03:26:17;4.65;;;1.30;;
69854;SDS011;57146;48.140;16.304;2022-10-31T03:28:54;4.25;;;1.20;;
69854;SDS011;57146;48.140;16.304;2022-10-31T03:31:30;3.92;;;1.30;;
69854;SDS011;57146;48.140;16.304;2022-10-31T03:34:01;4.23;;;1.27;;
69854;SDS011;57146;48.140;16.304;2022-10-31T03:36:30;4.45;;;1.40;;
69854;SDS011;57146;48.140;16.304;2022-10-31T03:39:00;4.07;;;1.20;;
69854;SDS011;57146;48.140;16.304;2022-10-31T03:41:31;5.28;;;1.42;;
69854;SDS011;57146;48.140;16.304;2022-10-31T03:44:08;6.13;;;1.65;;
69854;SDS011;57146;48.140;16.304;2022-10-31T03:46:40;7.80;;;1.50;;
69854;SDS011;57146;48.140;16.304;2022-10-31T03:49:09;5.45;;;1.55;;
69854;SDS011;57146;48.140;16.304;2022-10-31T03:54:08;4.25;;;1.17;;
69854;SDS011;57146;48.140;16.304;2022-10-31T03:56:49;3.53;;;1.10;;
69854;SDS011;57146;48.140;16.304;2022-10-31T03:59:32;4.17;;;1.07;;
69854;SDS011;57146;48.140;16.304;2022-10-31T04:02:14;4.15;;;1.20;;
69854;SDS011;57146;48.140;16.304;2022-10-31T04:04:45;5.22;;;1.27;;
69854;SDS011;57146;48.140;16.304;2022-10-31T04:07:15;4.53;;;1.58;;
69854;SDS011;57146;48.140;16.304;2022-10-31T04:09:44;4.82;;;1.40;;
69854;SDS011;57146;48.140;16.304;2022-10-31T04:12:13;4.80;;;1.60;;
69854;SDS011;57146;48.140;16.304;2022-10-31T04:14:45;4.07;;;1.38;;
69854;SDS011;57146;48.140;16.304;2022-10-31T04:17:17;7.35;;;1.48;;
69854;SDS011;57146;48.140;16.304;2022-10-31T04:19:46;4.97;;;1.80;;
69854;SDS011;57146;48.140;16.304;2022-10-31T04:22:14;5.32;;;1.20;;
69854;SDS011;57146;48.140;16.304;2022-10-31T04:24:41;5.60;;;1.50;;
69854;SDS011;57146;48.140;16.304;2022-10-31T04:27:12;5.63;;;1.50;;
69854;SDS011;57146;48.140;16.304;2022-10-31T04:29:38;5.82;;;1.38;;
69854;SDS011;57146;48.140;16.304;2022-10-31T04:32:07;4.47;;;1.30;;
69854;SDS011;57146;48.140;16.304;2022-10-31T04:34:34;5.38;;;1.60;;
69854;SDS011;57146;48.140;16.304;2022-10-31T04:37:01;5.83;;;1.50;;
69854;SDS011;57146;48.140;16.304;2022-10-31T04:39:27;4.32;;;1.33;;
69854;SDS011;57146;48.140;16.304;2022-10-31T04:42:15;3.97;;;1.30;;
69854;SDS011;57146;48.140;16.304;2022-10-31T04:44:42;4.88;;;1.48;;
69854;SDS011;57146;48.140;16.304;2022-10-31T04:47:10;4.53;;;1.52;;
69854;SDS011;57146;48.140;16.304;2022-10-31T04:49:36;4.33;;;1.40;;
69854;SDS011;57146;48.140;16.304;2022-10-31T04:52:04;3.88;;;1.25;;
69854;SDS011;57146;48.140;16.304;2022-10-31T04:54:32;4.18;;;1.00;;
69854;SDS011;57146;48.140;16.304;2022-10-31T04:57:44;3.70;;;1.00;;
69854;SDS011;57146;48.140;16.304;2022-10-31T05:00:14;3.30;;;0.90;;
69854;SDS011;57146;48.140;16.304;2022-10-31T05:02:44;3.67;;;1.03;;
69854;SDS011;57146;48.140;16.304;2022-10-31T05:05:15;3.47;;;1.05;;
69854;SDS011;57146;48.140;16.304;2022-10-31T05:07:44;4.00;;;1.02;;
69854;SDS011;57146;48.140;16.304;2022-10-31T05:10:13;2.97;;;0.90;;
69854;SDS011;57146;48.140;16.304;2022-10-31T05:13:16;4.00;;;1.00;;
69854;SDS011;57146;48.140;16.304;2022-10-31T05:15:55;3.70;;;1.00;;
69854;SDS011;57146;48.140;16.304;2022-10-31T05:18:48;3.45;;;1.15;;
69854;SDS011;57146;48.140;16.304;2022-10-31T05:21:38;3.65;;;1.10;;
69854;SDS011;57146;48.140;16.304;2022-10-31T05:24:06;4.63;;;1.20;;
69854;SDS011;57146;48.140;16.304;2022-10-31T05:26:34;3.72;;;0.77;;
69854;SDS011;57146;48.140;16.304;2022-10-31T05:29:01;5.50;;;1.20;;
69854;SDS011;57146;48.140;16.304;2022-10-31T05:31:28;3.97;;;1.00;;
69854;SDS011;57146;48.140;16.304;2022-10-31T05:33:55;4.25;;;1.08;;
69854;SDS011;57146;48.140;16.304;2022-10-31T05:36:25;4.05;;;1.02;;
69854;SDS011;57146;48.140;16.304;2022-10-31T05:39:01;4.38;;;1.40;;
69854;SDS011;57146;48.140;16.304;2022-10-31T05:41:40;3.93;;;1.00;;
69854;SDS011;57146;48.140;16.304;2022-10-31T05:44:21;4.18;;;1.17;;
69854;SDS011;57146;48.140;16.304;2022-10-31T05:47:06;3.95;;;1.15;;
69854;SDS011;57146;48.140;16.304;2022-10-31T05:49:53;4.13;;;1.42;;
69854;SDS011;57146;48.140;16.304;2022-10-31T05:52:36;3.92;;;0.70;;
69854;SDS011;57146;48.140;16.304;2022-10-31T05:55:32;4.33;;;1.00;;
69854;SDS011;57146;48.140;16.304;2022-10-31T05:58:16;3.38;;;0.75;;
69854;SDS011;57146;48.140;16.304;2022-10-31T06:00:58;3.97;;;0.88;;
69854;SDS011;57146;48.140;16.304;2022-10-31T06:03:25;4.90;;;1.00;;
69854;SDS011;57146;48.140;16.304;2022-10-31T06:05:55;4.55;;;0.88;;
69854;SDS011;57146;48.140;16.304;2022-10-31T06:08:25;3.67;;;0.83;;
69854;SDS011;57146;48.140;16.304;2022-10-31T06:10:54;4.97;;;1.30;;
69854;SDS011;57146;48.140;16.304;2022-10-31T06:13:40;3.78;;;1.00;;
69854;SDS011;57146;48.140;16.304;2022-10-31T06:16:16;5.60;;;1.20;;
69854;SDS011;57146;48.140;16.304;2022-10-31T06:18:45;4.35;;;1.10;;
69854;SDS011;57146;48.140;16.304;2022-10-31T06:21:13;7.37;;;1.63;;
69854;SDS011;57146;48.140;16.304;2022-10-31T06:23:45;4.72;;;1.50;;
69854;SDS011;57146;48.140;16.304;2022-10-31T06:26:34;6.10;;;1.60;;
69854;SDS011;57146;48.140;16.304;2022-10-31T06:29:01;6.82;;;1.52;;
69854;SDS011;57146;48.140;16.304;2022-10-31T06:31:53;5.65;;;1.92;;
69854;SDS011;57146;48.140;16.304;2022-10-31T06:34:20;6.93;;;2.13;;
69854;SDS011;57146;48.140;16.304;2022-10-31T06:36:47;5.15;;;1.70;;
69854;SDS011;57146;48.140;16.304;2022-10-31T06:39:14;5.03;;;1.45;;
69854;SDS011;57146;48.140;16.304;2022-10-31T06:41:42;6.10;;;1.65;;
69854;SDS011;57146;48.140;16.304;2022-10-31T06:44:09;4.75;;;1.52;;
69854;SDS011;57146;48.140;16.304;2022-10-31T06:46:54;6.30;;;1.90;;
69854;SDS011;57146;48.140;16.304;2022-10-31T06:49:40;5.40;;;1.80;;
69854;SDS011;57146;48.140;16.304;2022-10-31T06:52:13;6.97;;;2.10;;
69854;SDS011;57146;48.140;16.304;2022-10-31T06:54:40;6.40;;;2.33;;
69854;SDS011;57146;48.140;16.304;2022-10-31T06:57:07;4.90;;;1.67;;
69854;SDS011;57146;48.140;16.304;2022-10-31T06:59:37;5.37;;;1.67;;
69854;SDS011;57146;48.140;16.304;2022-10-31T07:02:16;5.97;;;1.88;;
69854;SDS011;57146;48.140;16.304;2022-10-31T07:04:43;4.75;;;1.58;;
69854;SDS011;57146;48.140;16.304;2022-10-31T07:07:15;6.63;;;1.77;;
69854;SDS011;57146;48.140;16.304;2022-10-31T07:09:43;6.50;;;2.10;;
69854;SDS011;57146;48.140;16.304;2022-10-31T07:12:13;5.03;;;1.70;;
69854;SDS011;57146;48.140;16.304;2022-10-31T07:14:50;4.70;;;1.70;;
69854;SDS011;57146;48.140;16.304;2022-10-31T07:17:17;6.13;;;2.20;;
69854;SDS011;57146;48.140;16.304;2022-10-31T07:19:44;4.78;;;1.75;;
69854;SDS011;57146;48.140;16.304;2022-10-31T07:22:14;6.45;;;1.80;;
69854;SDS011;57146;48.140;16.304;2022-10-31T07:24:43;6.13;;;2.20;;
69854;SDS011;57146;48.140;16.304;2022-10-31T07:27:44;6.88;;;2.25;;
69854;SDS011;57146;48.140;16.304;2022-10-31T07:30:12;7.88;;;2.20;;
69854;SDS011;57146;48.140;16.304;2022-10-31T07:32:44;7.95;;;2.80;;
69854;SDS011;57146;48.140;16.304;2022-10-31T07:35:15;7.38;;;2.58;;
69854;SDS011;57146;48.140;16.304;2022-10-31T07:37:55;7.67;;;2.70;;
69854;SDS011;57146;48.140;16.304;2022-10-31T07:40:23;7.03;;;2.83;;
69854;SDS011;57146;48.140;16.304;2022-10-31T07:42:52;6.93;;;2.75;;
69854;SDS011;57146;48.140;16.304;2022-10-31T07:45:50;7.85;;;2.70;;
69854;SDS011;57146;48.140;16.304;2022-10-31T07:48:37;7.97;;;2.75;;
69854;SDS011;57146;48.140;16.304;2022-10-31T07:51:22;9.97;;;2.87;;
69854;SDS011;57146;48.140;16.304;2022-10-31T07:54:07;7.72;;;2.78;;
69854;SDS011;57146;48.140;16.304;2022-10-31T07:56:34;7.50;;;2.85;;
69854;SDS011;57146;48.140;16.304;2022-10-31T07:59:00;8.10;;;3.10;;
69854;SDS011;57146;48.140;16.304;2022-10-31T08:01:28;8.32;;;3.20;;
69854;SDS011;57146;48.140;16.304;2022-10-31T08:04:15;8.70;;;3.07;;
69854;SDS011;57146;48.140;16.304;2022-10-31T08:07:00;10.27;;;3.55;;
69854;SDS011;57146;48.140;16.304;2022-10-31T08:09:33;10.38;;;3.72;;
69854;SDS011;57146;48.140;16.304;2022-10-31T08:12:05;10.65;;;3.42;;
69854;SDS011;57146;48.140;16.304;2022-10-31T08:14:34;8.35;;;3.35;;
69854;SDS011;57146;48.140;16.304;2022-10-31T08:17:01;9.97;;;3.67;;
69854;SDS011;57146;48.140;16.304;2022-10-31T08:19:38;10.82;;;3.90;;
69854;SDS011;57146;48.140;16.304;2022-10-31T08:22:04;9.93;;;4.00;;
69854;SDS011;57146;48.140;16.304;2022-10-31T08:24:31;10.65;;;4.00;;
69854;SDS011;57146;48.140;16.304;2022-10-31T08:26:59;10.73;;;3.83;;
69854;SDS011;57146;48.140;16.304;2022-10-31T08:29:26;10.83;;;4.13;;
69854;SDS011;57146;48.140;16.304;2022-10-31T08:31:52;11.30;;;4.55;;
69854;SDS011;57146;48.140;16.304;2022-10-31T08:34:51;10.68;;;4.10;;
69854;SDS011;57146;48.140;16.304;2022-10-31T08:37:38;9.80;;;3.55;;
69854;SDS011;57146;48.140;16.304;2022-10-31T08:40:06;9.45;;;3.75;;
69854;SDS011;57146;48.140;16.304;2022-10-31T08:42:34;9.90;;;3.67;;
69854;SDS011;57146;48.140;16.304;2022-10-31T08:45:01;11.38;;;3.60;;
69854;SDS011;57146;48.140;16.304;2022-10-31T08:47:30;8.77;;;3.80;;
69854;SDS011;57146;48.140;16.304;2022-10-31T08:49:57;10.77;;;4.32;;
69854;SDS011;57146;48.140;16.304;2022-10-31T08:52:25;10.65;;;4.50;;
69854;SDS011;57146;48.140;16.304;2022-10-31T08:55:11;12.30;;;4.67;;
69854;SDS011;57146;48.140;16.304;2022-10-31T08:57:54;12.85;;;3.95;;
69854;SDS011;57146;48.140;16.304;2022-10-31T09:00:34;12.82;;;4.65;;
69854;SDS011;57146;48.140;16.304;2022-10-31T09:03:15;10.60;;;4.13;;
69854;SDS011;57146;48.140;16.304;2022-10-31T09:05:45;9.82;;;3.90;;
69854;SDS011;57146;48.140;16.304;2022-10-31T09:08:14;12.90;;;4.80;;
69854;SDS011;57146;48.140;16.304;2022-10-31T09:10:45;13.05;;;5.05;;
69854;SDS011;57146;48.140;16.304;2022-10-31T09:13:17;12.43;;;4.45;;
69854;SDS011;57146;48.140;16.304;2022-10-31T09:16:14;15.07;;;4.78;;
69854;SDS011;57146;48.140;16.304;2022-10-31T09:18:42;13.63;;;4.88;;
69854;SDS011;57146;48.140;16.304;2022-10-31T09:21:09;12.23;;;4.50;;
69854;SDS011;57146;48.140;16.304;2022-10-31T09:23:36;13.27;;;4.38;;
69854;SDS011;57146;48.140;16.304;2022-10-31T09:26:03;14.50;;;4.75;;
69854;SDS011;57146;48.140;16.304;2022-10-31T09:28:39;14.13;;;4.80;;
69854;SDS011;57146;48.140;16.304;2022-10-31T09:31:12;14.60;;;5.45;;
69854;SDS011;57146;48.140;16.304;2022-10-31T09:33:48;14.73;;;5.27;;
69854;SDS011;57146;48.140;16.304;2022-10-31T09:36:41;16.25;;;5.78;;
69854;SDS011;57146;48.140;16.304;2022-10-31T09:39:16;16.33;;;5.60;;
69854;SDS011;57146;48.140;16.304;2022-10-31T09:42:04;13.93;;;5.93;;
69854;SDS011;57146;48.140;16.304;2022-10-31T09:47:40;17.13;;;5.77;;
69854;SDS011;57146;48.140;16.304;2022-10-31T09:50:38;13.82;;;4.97;;
69854;SDS011;57146;48.140;16.304;2022-10-31T09:56:20;14.93;;;5.88;;
69854;SDS011;57146;48.140;16.304;2022-10-31T09:58:54;15.23;;;5.60;;
69854;SDS011;57146;48.140;16.304;2022-10-31T10:03:59;16.30;;;5.97;;
69854;SDS011;57146;48.140;16.304;2022-10-31T10:06:53;16.40;;;6.20;;
69854;SDS011;57146;48.140;16.304;2022-10-31T10:09:50;18.20;;;6.18;;
69854;SDS011;57146;48.140;16.304;2022-10-31T10:18:12;21.30;;;7.22;;
69854;SDS011;57146;48.140;16.304;2022-10-31T10:23:47;19.90;;;7.60;;
69854;SDS011;57146;48.140;16.304;2022-10-31T10:26:21;20.77;;;7.15;;
69854;SDS011;57146;48.140;16.304;2022-10-31T10:29:01;22.37;;;7.83;;
69854;SDS011;57146;48.140;16.304;2022-10-31T10:31:37;21.70;;;8.02;;
69854;SDS011;57146;48.140;16.304;2022-10-31T10:34:13;21.02;;;8.30;;
69854;SDS011;57146;48.140;16.304;2022-10-31T10:36:49;27.15;;;9.60;;
69854;SDS011;57146;48.140;16.304;2022-10-31T10:39:25;28.33;;;10.50;;
69854;SDS011;57146;48.140;16.304;2022-10-31T10:42:01;28.97;;;11.00;;
69854;SDS011;57146;48.140;16.304;2022-10-31T10:44:37;28.85;;;10.57;;
69854;SDS011;57146;48.140;16.304;2022-10-31T10:47:09;33.22;;;11.38;;
69854;SDS011;57146;48.140;16.304;2022-10-31T10:55:56;25.93;;;10.77;;
69854;SDS011;57146;48.140;16.304;2022-10-31T10:58:12;36.60;;;12.15;;
69854;SDS011;57146;48.140;16.304;2022-10-31T11:00:43;31.05;;;11.25;;
69854;SDS011;57146;48.140;16.304;2022-10-31T11:03:12;29.35;;;11.02;;
69854;SDS011;57146;48.140;16.304;2022-10-31T11:08:26;29.60;;;11.33;;
69854;SDS011;57146;48.140;16.304;2022-10-31T11:11:36;30.27;;;12.23;;
69854;SDS011;57146;48.140;16.304;2022-10-31T11:13:45;29.50;;;12.27;;
69854;SDS011;57146;48.140;16.304;2022-10-31T11:21:42;44.60;;;15.57;;
69854;SDS011;57146;48.140;16.304;2022-10-31T11:24:17;43.30;;;14.88;;
69854;SDS011;57146;48.140;16.304;2022-10-31T11:26:49;44.33;;;15.05;;
69854;SDS011;57146;48.140;16.304;2022-10-31T11:31:49;39.55;;;14.70;;
69854;SDS011;57146;48.140;16.304;2022-10-31T11:34:31;41.63;;;15.33;;
69854;SDS011;57146;48.140;16.304;2022-10-31T11:37:16;39.95;;;14.65;;
69854;SDS011;57146;48.140;16.304;2022-10-31T11:39:51;36.90;;;14.00;;
69854;SDS011;57146;48.140;16.304;2022-10-31T11:42:34;37.33;;;14.88;;
69854;SDS011;57146;48.140;16.304;2022-10-31T11:45:07;37.40;;;14.75;;
69854;SDS011;57146;48.140;16.304;2022-10-31T11:47:45;35.37;;;13.87;;
69854;SDS011;57146;48.140;16.304;2022-10-31T11:52:58;28.65;;;11.73;;
69854;SDS011;57146;48.140;16.304;2022-10-31T11:58:00;32.13;;;13.70;;
69854;SDS011;57146;48.140;16.304;2022-10-31T12:05:58;33.80;;;14.35;;
69854;SDS011;57146;48.140;16.304;2022-10-31T12:08:31;31.83;;;14.35;;
69854;SDS011;57146;48.140;16.304;2022-10-31T12:11:23;33.05;;;14.23;;
69854;SDS011;57146;48.140;16.304;2022-10-31T12:19:32;34.83;;;14.32;;
69854;SDS011;57146;48.140;16.304;2022-10-31T12:22:28;39.15;;;15.43;;
69854;SDS011;57146;48.140;16.304;2022-10-31T12:46:33;38.47;;;15.70;;
69854;SDS011;57146;48.140;16.304;2022-10-31T12:57:38;32.35;;;14.43;;
69854;SDS011;57146;48.140;16.304;2022-10-31T13:00:13;32.35;;;14.73;;
69854;SDS011;57146;48.140;16.304;2022-10-31T13:05:44;39.67;;;15.82;;
69854;SDS011;57146;48.140;16.304;2022-10-31T13:11:09;38.40;;;15.68;;
69854;SDS011;57146;48.140;16.304;2022-10-31T13:16:22;41.10;;;16.50;;
69854;SDS011;57146;48.140;16.304;2022-10-31T13:19:30;38.17;;;16.35;;
69854;SDS011;57146;48.140;16.304;2022-10-31T13:22:04;38.00;;;15.50;;
69854;SDS011;57146;48.140;16.304;2022-10-31T13:27:09;41.78;;;15.85;;
69854;SDS011;57146;48.140;16.304;2022-10-31T13:29:44;38.25;;;15.52;;
69854;SDS011;57146;48.140;16.304;2022-10-31T13:32:26;40.13;;;15.38;;
69854;SDS011;57146;48.140;16.304;2022-10-31T13:34:56;39.10;;;15.23;;
69854;SDS011;57146;48.140;16.304;2022-10-31T13:43:01;42.60;;;16.92;;
69854;SDS011;57146;48.140;16.304;2022-10-31T13:45:48;45.35;;;16.88;;
69854;SDS011;57146;48.140;16.304;2022-10-31T13:48:32;37.93;;;15.37;;
69854;SDS011;57146;48.140;16.304;2022-10-31T13:51:03;42.15;;;16.92;;
69854;SDS011;57146;48.140;16.304;2022-10-31T13:56:26;40.88;;;16.00;;
69854;SDS011;57146;48.140;16.304;2022-10-31T13:59:04;38.00;;;15.65;;
69854;SDS011;57146;48.140;16.304;2022-10-31T14:01:44;36.33;;;15.13;;
69854;SDS011;57146;48.140;16.304;2022-10-31T14:04:18;37.58;;;14.93;;
69854;SDS011;57146;48.140;16.304;2022-10-31T14:12:10;43.42;;;16.65;;
69854;SDS011;57146;48.140;16.304;2022-10-31T14:14:50;38.43;;;16.83;;
69854;SDS011;57146;48.140;16.304;2022-10-31T14:17:23;38.05;;;15.52;;
69854;SDS011;57146;48.140;16.304;2022-10-31T14:20:53;37.30;;;15.13;;
69854;SDS011;57146;48.140;16.304;2022-10-31T14:23:09;35.25;;;14.68;;
69854;SDS011;57146;48.140;16.304;2022-10-31T14:25:39;36.65;;;15.07;;
69854;SDS011;57146;48.140;16.304;2022-10-31T14:28:22;34.00;;;14.70;;
69854;SDS011;57146;48.140;16.304;2022-10-31T14:31:00;32.33;;;14.35;;
69854;SDS011;57146;48.140;16.304;2022-10-31T14:33:28;33.40;;;14.73;;
69854;SDS011;57146;48.140;16.304;2022-10-31T14:36:04;33.40;;;14.75;;
69854;SDS011;57146;48.140;16.304;2022-10-31T14:38:57;33.13;;;13.90;;
69854;SDS011;57146;48.140;16.304;2022-10-31T14:46:54;29.60;;;12.05;;
69854;SDS011;57146;48.140;16.304;2022-10-31T14:49:42;29.30;;;11.50;;
69854;SDS011;57146;48.140;16.304;2022-10-31T14:52:14;28.10;;;11.25;;
69854;SDS011;57146;48.140;16.304;2022-10-31T14:54:44;30.03;;;12.23;;
69854;SDS011;57146;48.140;16.304;2022-10-31T14:57:31;27.20;;;10.85;;
69854;SDS011;57146;48.140;16.304;2022-10-31T15:00:05;30.45;;;11.80;;
69854;SDS011;57146;48.140;16.304;2022-10-31T15:02:40;28.90;;;11.75;;
69854;SDS011;57146;48.140;16.304;2022-10-31T15:05:22;27.88;;;10.98;;
69854;SDS011;57146;48.140;16.304;2022-10-31T15:07:51;27.33;;;11.10;;
69854;SDS011;57146;48.140;16.304;2022-10-31T15:10:26;24.60;;;10.43;;
69854;SDS011;57146;48.140;16.304;2022-10-31T15:12:54;27.02;;;10.68;;
69854;SDS011;57146;48.140;16.304;2022-10-31T15:15:21;25.85;;;10.80;;
69854;SDS011;57146;48.140;16.304;2022-10-31T15:17:54;27.75;;;11.40;;
69854;SDS011;57146;48.140;16.304;2022-10-31T15:20:28;27.20;;;10.97;;
69854;SDS011;57146;48.140;16.304;2022-10-31T15:22:59;28.25;;;11.95;;
69854;SDS011;57146;48.140;16.304;2022-10-31T15:25:28;29.10;;;11.85;;
69854;SDS011;57146;48.140;16.304;2022-10-31T15:28:00;30.45;;;11.82;;
69854;SDS011;57146;48.140;16.304;2022-10-31T15:30:27;36.65;;;13.07;;
69854;SDS011;57146;48.140;16.304;2022-10-31T15:32:56;33.93;;;12.90;;
69854;SDS011;57146;48.140;16.304;2022-10-31T15:37:58;33.63;;;13.43;;
69854;SDS011;57146;48.140;16.304;2022-10-31T15:40:26;34.40;;;13.30;;
69854;SDS011;57146;48.140;16.304;2022-10-31T15:43:00;33.45;;;13.55;;
69854;SDS011;57146;48.140;16.304;2022-10-31T15:45:29;33.20;;;13.57;;
69854;SDS011;57146;48.140;16.304;2022-10-31T15:50:32;32.80;;;12.80;;
69854;SDS011;57146;48.140;16.304;2022-10-31T15:53:05;33.92;;;13.32;;
69854;SDS011;57146;48.140;16.304;2022-10-31T15:55:45;31.98;;;12.60;;
69854;SDS011;57146;48.140;16.304;2022-10-31T15:58:24;32.13;;;13.37;;
69854;SDS011;57146;48.140;16.304;2022-10-31T16:00:59;28.63;;;11.93;;
69854;SDS011;57146;48.140;16.304;2022-10-31T16:03:30;29.33;;;12.13;;
69854;SDS011;57146;48.140;16.304;2022-10-31T16:05:59;26.08;;;10.68;;
69854;SDS011;57146;48.140;16.304;2022-10-31T16:16:28;28.67;;;10.85;;
69854;SDS011;57146;48.140;16.304;2022-10-31T16:19:02;22.20;;;9.18;;
69854;SDS011;57146;48.140;16.304;2022-10-31T16:21:32;23.52;;;9.45;;
69854;SDS011;57146;48.140;16.304;2022-10-31T16:24:04;26.40;;;10.33;;
69854;SDS011;57146;48.140;16.304;2022-10-31T16:26:48;29.67;;;11.07;;
69854;SDS011;57146;48.140;16.304;2022-10-31T16:29:49;29.30;;;10.25;;
69854;SDS011;57146;48.140;16.304;2022-10-31T16:37:28;25.33;;;9.70;;
69854;SDS011;57146;48.140;16.304;2022-10-31T16:39:55;32.50;;;11.55;;
69854;SDS011;57146;48.140;16.304;2022-10-31T16:42:22;28.75;;;10.88;;
69854;SDS011;57146;48.140;16.304;2022-10-31T16:44:49;26.08;;;9.65;;
69854;SDS011;57146;48.140;16.304;2022-10-31T16:47:16;27.55;;;9.90;;
69854;SDS011;57146;48.140;16.304;2022-10-31T16:49:47;21.93;;;9.03;;
69854;SDS011;57146;48.140;16.304;2022-10-31T16:52:16;25.50;;;9.07;;
69854;SDS011;57146;48.140;16.304;2022-10-31T16:54:43;25.08;;;9.00;;
69854;SDS011;57146;48.140;16.304;2022-10-31T16:57:12;24.58;;;9.25;;
69854;SDS011;57146;48.140;16.304;2022-10-31T16:59:47;27.02;;;9.55;;
69854;SDS011;57146;48.140;16.304;2022-10-31T17:02:17;24.30;;;9.27;;
69854;SDS011;57146;48.140;16.304;2022-10-31T17:04:45;27.90;;;10.40;;
69854;SDS011;57146;48.140;16.304;2022-10-31T17:07:16;24.10;;;9.55;;
69854;SDS011;57146;48.140;16.304;2022-10-31T17:09:43;29.65;;;10.02;;
69854;SDS011;57146;48.140;16.304;2022-10-31T17:12:13;27.58;;;9.75;;
69854;SDS011;57146;48.140;16.304;2022-10-31T17:14:45;21.30;;;8.37;;
69854;SDS011;57146;48.140;16.304;2022-10-31T17:17:16;19.13;;;8.07;;
69854;SDS011;57146;48.140;16.304;2022-10-31T17:19:43;20.40;;;8.45;;
69854;SDS011;57146;48.140;16.304;2022-10-31T17:22:10;21.58;;;8.77;;
69854;SDS011;57146;48.140;16.304;2022-10-31T17:24:38;20.27;;;8.57;;
69854;SDS011;57146;48.140;16.304;2022-10-31T17:27:05;20.00;;;8.07;;
69854;SDS011;57146;48.140;16.304;2022-10-31T17:29:32;21.75;;;8.25;;
69854;SDS011;57146;48.140;16.304;2022-10-31T17:32:00;21.55;;;8.52;;
69854;SDS011;57146;48.140;16.304;2022-10-31T17:34:27;19.10;;;8.20;;